sensor_id;sensor_type;location;lat;lon;timestamp;temperature;humidity
22430;DHT22;11382;48.086;11.632;2022-07-23T00:00:52;22.90;99.90
22430;DHT22;11382;48.086;11.632;2022-07-23T00:03:20;22.90;99.90
22430;DHT22;11382;48.086;11.632;2022-07-23T00:05:48;22.90;99.90
22430;DHT22;11382;48.086;11.632;2022-07-23T00:08:16;22.80;99.90
22430;DHT22;11382;48.086;11.632;2022-07-23T00:10:44;22.80;99.90
22430;DHT22;11382;48.086;11.632;2022-07-23T00:13:12;22.70;99.90
22430;DHT22;11382;48.086;11.632;2022-07-23T00:15:40;22.80;99.90
22430;DHT22;11382;48.086;11.632;2022-07-23T00:18:10;22.70;99.90
22430;DHT22;11382;48.086;11.632;2022-07-23T00:20:37;22.70;99.90
22430;DHT22;11382;48.086;11.632;2022-07-23T00:23:05;22.70;99.90
22430;DHT22;11382;48.086;11.632;2022-07-23T00:25:34;22.70;99.90
22430;DHT22;11382;48.086;11.632;2022-07-23T00:28:03;22.70;99.90
22430;DHT22;11382;48.086;11.632;2022-07-23T00:30:32;22.60;99.90
22430;DHT22;11382;48.086;11.632;2022-07-23T00:33:01;22.60;99.90
22430;DHT22;11382;48.086;11.632;2022-07-23T00:35:32;22.60;99.90
22430;DHT22;11382;48.086;11.632;2022-07-23T00:38:01;22.50;99.90
22430;DHT22;11382;48.086;11.632;2022-07-23T00:40:29;22.60;99.90
22430;DHT22;11382;48.086;11.632;2022-07-23T00:42:57;22.60;99.90
22430;DHT22;11382;48.086;11.632;2022-07-23T00:45:26;22.60;99.90
22430;DHT22;11382;48.086;11.632;2022-07-23T00:47:55;22.50;99.90
22430;DHT22;11382;48.086;11.632;2022-07-23T00:50:23;22.50;99.90
22430;DHT22;11382;48.086;11.632;2022-07-23T00:52:52;22.50;99.90
22430;DHT22;11382;48.086;11.632;2022-07-23T00:55:21;22.50;99.90
22430;DHT22;11382;48.086;11.632;2022-07-23T00:57:50;22.60;99.90
22430;DHT22;11382;48.086;11.632;2022-07-23T01:00:18;22.60;99.90
22430;DHT22;11382;48.086;11.632;2022-07-23T01:02:46;22.50;99.90
22430;DHT22;11382;48.086;11.632;2022-07-23T01:05:15;22.40;99.90
22430;DHT22;11382;48.086;11.632;2022-07-23T01:07:45;22.40;99.90
22430;DHT22;11382;48.086;11.632;2022-07-23T01:10:16;22.40;99.90
22430;DHT22;11382;48.086;11.632;2022-07-23T01:13:01;22.20;99.90
22430;DHT22;11382;48.086;11.632;2022-07-23T01:15:30;22.20;99.90
22430;DHT22;11382;48.086;11.632;2022-07-23T01:17:58;22.20;99.90
22430;DHT22;11382;48.086;11.632;2022-07-23T01:20:27;22.20;99.90
22430;DHT22;11382;48.086;11.632;2022-07-23T01:22:57;22.20;99.90
22430;DHT22;11382;48.086;11.632;2022-07-23T01:25:25;22.40;99.90
22430;DHT22;11382;48.086;11.632;2022-07-23T01:27:56;22.50;99.90
22430;DHT22;11382;48.086;11.632;2022-07-23T01:30:24;22.60;99.90
22430;DHT22;11382;48.086;11.632;2022-07-23T01:32:54;22.50;99.90
22430;DHT22;11382;48.086;11.632;2022-07-23T01:35:22;22.30;99.90
22430;DHT22;11382;48.086;11.632;2022-07-23T01:37:53;22.00;99.90
22430;DHT22;11382;48.086;11.632;2022-07-23T01:40:23;21.70;99.90
22430;DHT22;11382;48.086;11.632;2022-07-23T01:42:52;21.50;99.90
22430;DHT22;11382;48.086;11.632;2022-07-23T01:45:21;21.50;99.90
22430;DHT22;11382;48.086;11.632;2022-07-23T01:47:51;21.50;99.90
22430;DHT22;11382;48.086;11.632;2022-07-23T01:50:19;21.30;99.90
22430;DHT22;11382;48.086;11.632;2022-07-23T01:53:00;21.20;99.90
22430;DHT22;11382;48.086;11.632;2022-07-23T01:55:30;21.00;99.90
22430;DHT22;11382;48.086;11.632;2022-07-23T01:57:58;21.00;99.90
22430;DHT22;11382;48.086;11.632;2022-07-23T02:00:28;20.80;99.90
22430;DHT22;11382;48.086;11.632;2022-07-23T02:02:56;20.80;99.90
22430;DHT22;11382;48.086;11.632;2022-07-23T02:05:27;20.70;99.90
22430;DHT22;11382;48.086;11.632;2022-07-23T02:07:55;20.60;99.90
22430;DHT22;11382;48.086;11.632;2022-07-23T02:10:23;20.60;99.90
22430;DHT22;11382;48.086;11.632;2022-07-23T02:12:53;20.60;99.90
22430;DHT22;11382;48.086;11.632;2022-07-23T02:15:21;20.60;99.90
22430;DHT22;11382;48.086;11.632;2022-07-23T02:17:49;20.60;99.90
22430;DHT22;11382;48.086;11.632;2022-07-23T02:20:17;20.60;99.90
22430;DHT22;11382;48.086;11.632;2022-07-23T02:22:45;20.50;99.90
22430;DHT22;11382;48.086;11.632;2022-07-23T02:25:13;20.30;99.90
22430;DHT22;11382;48.086;11.632;2022-07-23T02:27:42;20.20;99.90
22430;DHT22;11382;48.086;11.632;2022-07-23T02:30:12;20.00;99.90
22430;DHT22;11382;48.086;11.632;2022-07-23T02:32:40;19.80;99.90
22430;DHT22;11382;48.086;11.632;2022-07-23T02:35:10;19.80;99.90
22430;DHT22;11382;48.086;11.632;2022-07-23T02:37:38;19.80;99.90
22430;DHT22;11382;48.086;11.632;2022-07-23T02:40:07;19.70;99.90
22430;DHT22;11382;48.086;11.632;2022-07-23T02:42:38;19.80;99.90
22430;DHT22;11382;48.086;11.632;2022-07-23T02:45:06;19.80;99.90
22430;DHT22;11382;48.086;11.632;2022-07-23T02:47:36;19.80;99.90
22430;DHT22;11382;48.086;11.632;2022-07-23T02:50:05;19.80;99.90
22430;DHT22;11382;48.086;11.632;2022-07-23T02:52:34;19.80;99.90
22430;DHT22;11382;48.086;11.632;2022-07-23T02:55:02;19.90;99.90
22430;DHT22;11382;48.086;11.632;2022-07-23T02:57:30;19.80;99.90
22430;DHT22;11382;48.086;11.632;2022-07-23T02:59:58;19.70;99.90
22430;DHT22;11382;48.086;11.632;2022-07-23T03:02:26;19.70;99.90
22430;DHT22;11382;48.086;11.632;2022-07-23T03:04:55;19.60;99.90
22430;DHT22;11382;48.086;11.632;2022-07-23T03:07:23;19.60;99.90
22430;DHT22;11382;48.086;11.632;2022-07-23T03:09:52;19.40;99.90
22430;DHT22;11382;48.086;11.632;2022-07-23T03:12:22;19.40;99.90
22430;DHT22;11382;48.086;11.632;2022-07-23T03:14:51;19.40;99.90
22430;DHT22;11382;48.086;11.632;2022-07-23T03:17:19;19.30;99.90
22430;DHT22;11382;48.086;11.632;2022-07-23T03:19:46;19.30;99.90
22430;DHT22;11382;48.086;11.632;2022-07-23T03:22:16;19.20;99.90
22430;DHT22;11382;48.086;11.632;2022-07-23T03:24:44;19.10;99.90
22430;DHT22;11382;48.086;11.632;2022-07-23T03:27:30;19.10;99.90
22430;DHT22;11382;48.086;11.632;2022-07-23T03:29:59;19.00;99.90
22430;DHT22;11382;48.086;11.632;2022-07-23T03:32:27;19.00;99.90
22430;DHT22;11382;48.086;11.632;2022-07-23T03:34:55;18.90;99.90
22430;DHT22;11382;48.086;11.632;2022-07-23T03:37:26;19.00;99.90
22430;DHT22;11382;48.086;11.632;2022-07-23T03:39:56;19.00;99.90
22430;DHT22;11382;48.086;11.632;2022-07-23T03:42:25;19.10;99.90
22430;DHT22;11382;48.086;11.632;2022-07-23T03:44:53;19.10;99.90
22430;DHT22;11382;48.086;11.632;2022-07-23T03:47:21;18.90;99.90
22430;DHT22;11382;48.086;11.632;2022-07-23T03:49:49;18.80;99.90
22430;DHT22;11382;48.086;11.632;2022-07-23T03:52:17;18.80;99.90
22430;DHT22;11382;48.086;11.632;2022-07-23T03:54:47;18.90;99.90
22430;DHT22;11382;48.086;11.632;2022-07-23T03:57:15;18.90;99.90
22430;DHT22;11382;48.086;11.632;2022-07-23T03:59:43;18.90;99.90
22430;DHT22;11382;48.086;11.632;2022-07-23T04:02:11;19.00;99.90
22430;DHT22;11382;48.086;11.632;2022-07-23T04:04:39;19.10;99.90
22430;DHT22;11382;48.086;11.632;2022-07-23T04:07:07;19.20;99.90
22430;DHT22;11382;48.086;11.632;2022-07-23T04:09:37;19.20;99.90
22430;DHT22;11382;48.086;11.632;2022-07-23T04:12:13;19.20;99.90
22430;DHT22;11382;48.086;11.632;2022-07-23T04:14:41;19.20;99.90
22430;DHT22;11382;48.086;11.632;2022-07-23T04:17:09;19.20;99.90
22430;DHT22;11382;48.086;11.632;2022-07-23T04:19:37;19.20;99.90
22430;DHT22;11382;48.086;11.632;2022-07-23T04:22:09;19.40;99.90
22430;DHT22;11382;48.086;11.632;2022-07-23T04:24:38;19.50;99.90
22430;DHT22;11382;48.086;11.632;2022-07-23T04:27:07;19.50;99.90
22430;DHT22;11382;48.086;11.632;2022-07-23T04:29:37;19.60;99.90
22430;DHT22;11382;48.086;11.632;2022-07-23T04:32:05;19.50;99.90
22430;DHT22;11382;48.086;11.632;2022-07-23T04:34:33;19.40;99.90
22430;DHT22;11382;48.086;11.632;2022-07-23T04:37:02;19.40;99.90
22430;DHT22;11382;48.086;11.632;2022-07-23T04:39:31;19.40;99.90
22430;DHT22;11382;48.086;11.632;2022-07-23T04:42:00;19.50;99.90
22430;DHT22;11382;48.086;11.632;2022-07-23T04:44:30;19.60;99.90
22430;DHT22;11382;48.086;11.632;2022-07-23T04:46:59;19.80;99.90
22430;DHT22;11382;48.086;11.632;2022-07-23T04:49:28;19.80;99.90
22430;DHT22;11382;48.086;11.632;2022-07-23T04:51:56;19.80;99.90
22430;DHT22;11382;48.086;11.632;2022-07-23T04:54:24;19.80;99.90
22430;DHT22;11382;48.086;11.632;2022-07-23T04:56:52;19.80;99.90
22430;DHT22;11382;48.086;11.632;2022-07-23T04:59:20;19.80;99.90
22430;DHT22;11382;48.086;11.632;2022-07-23T05:01:55;19.90;99.90
22430;DHT22;11382;48.086;11.632;2022-07-23T05:04:24;19.90;99.90
22430;DHT22;11382;48.086;11.632;2022-07-23T05:06:52;20.00;99.90
22430;DHT22;11382;48.086;11.632;2022-07-23T05:09:20;20.10;99.90
22430;DHT22;11382;48.086;11.632;2022-07-23T05:11:50;20.10;99.90
22430;DHT22;11382;48.086;11.632;2022-07-23T05:14:19;20.20;99.90
22430;DHT22;11382;48.086;11.632;2022-07-23T05:16:48;20.20;99.90
22430;DHT22;11382;48.086;11.632;2022-07-23T05:19:21;20.30;99.90
22430;DHT22;11382;48.086;11.632;2022-07-23T05:21:52;20.40;99.90
22430;DHT22;11382;48.086;11.632;2022-07-23T05:24:21;20.30;99.90
22430;DHT22;11382;48.086;11.632;2022-07-23T05:26:49;20.30;99.90
22430;DHT22;11382;48.086;11.632;2022-07-23T05:29:18;20.40;99.90
22430;DHT22;11382;48.086;11.632;2022-07-23T05:31:46;20.50;99.90
22430;DHT22;11382;48.086;11.632;2022-07-23T05:34:15;20.60;99.90
22430;DHT22;11382;48.086;11.632;2022-07-23T05:36:45;20.80;99.90
22430;DHT22;11382;48.086;11.632;2022-07-23T05:39:15;20.80;99.90
22430;DHT22;11382;48.086;11.632;2022-07-23T05:41:43;20.90;99.90
22430;DHT22;11382;48.086;11.632;2022-07-23T05:44:11;20.90;99.90
22430;DHT22;11382;48.086;11.632;2022-07-23T05:46:42;20.90;99.90
22430;DHT22;11382;48.086;11.632;2022-07-23T05:49:15;20.80;99.90
22430;DHT22;11382;48.086;11.632;2022-07-23T05:52:04;20.90;99.90
22430;DHT22;11382;48.086;11.632;2022-07-23T05:54:52;21.00;99.90
22430;DHT22;11382;48.086;11.632;2022-07-23T05:57:21;21.10;99.90
22430;DHT22;11382;48.086;11.632;2022-07-23T05:59:51;21.30;99.90
22430;DHT22;11382;48.086;11.632;2022-07-23T06:02:19;21.40;99.90
22430;DHT22;11382;48.086;11.632;2022-07-23T06:04:47;21.50;99.90
22430;DHT22;11382;48.086;11.632;2022-07-23T06:07:27;21.40;99.90
22430;DHT22;11382;48.086;11.632;2022-07-23T06:09:56;21.40;99.90
22430;DHT22;11382;48.086;11.632;2022-07-23T06:12:24;21.30;99.90
22430;DHT22;11382;48.086;11.632;2022-07-23T06:14:54;21.20;99.90
22430;DHT22;11382;48.086;11.632;2022-07-23T06:17:22;21.30;99.90
22430;DHT22;11382;48.086;11.632;2022-07-23T06:19:51;21.30;99.90
22430;DHT22;11382;48.086;11.632;2022-07-23T06:22:20;21.30;99.90
22430;DHT22;11382;48.086;11.632;2022-07-23T06:24:48;21.00;99.90
22430;DHT22;11382;48.086;11.632;2022-07-23T06:27:20;20.80;99.90
22430;DHT22;11382;48.086;11.632;2022-07-23T06:29:52;20.60;99.90
22430;DHT22;11382;48.086;11.632;2022-07-23T06:32:20;20.60;99.90
22430;DHT22;11382;48.086;11.632;2022-07-23T06:34:48;20.40;99.90
22430;DHT22;11382;48.086;11.632;2022-07-23T06:37:16;20.50;99.90
22430;DHT22;11382;48.086;11.632;2022-07-23T06:39:45;20.60;99.90
22430;DHT22;11382;48.086;11.632;2022-07-23T06:42:14;20.70;99.90
22430;DHT22;11382;48.086;11.632;2022-07-23T06:44:45;20.60;99.90
22430;DHT22;11382;48.086;11.632;2022-07-23T06:47:15;20.70;99.90
22430;DHT22;11382;48.086;11.632;2022-07-23T06:49:44;20.60;99.90
22430;DHT22;11382;48.086;11.632;2022-07-23T06:52:12;20.70;99.90
22430;DHT22;11382;48.086;11.632;2022-07-23T06:54:40;20.80;99.90
22430;DHT22;11382;48.086;11.632;2022-07-23T06:57:08;21.00;99.90
22430;DHT22;11382;48.086;11.632;2022-07-23T06:59:36;21.20;99.90
22430;DHT22;11382;48.086;11.632;2022-07-23T07:02:08;21.30;99.90
22430;DHT22;11382;48.086;11.632;2022-07-23T07:04:36;21.50;99.90
22430;DHT22;11382;48.086;11.632;2022-07-23T07:07:04;21.70;99.90
22430;DHT22;11382;48.086;11.632;2022-07-23T07:09:32;21.90;99.90
22430;DHT22;11382;48.086;11.632;2022-07-23T07:12:00;22.20;99.90
22430;DHT22;11382;48.086;11.632;2022-07-23T07:14:29;22.50;99.90
22430;DHT22;11382;48.086;11.632;2022-07-23T07:16:57;22.90;99.90
22430;DHT22;11382;48.086;11.632;2022-07-23T07:19:26;23.70;99.90
22430;DHT22;11382;48.086;11.632;2022-07-23T07:21:54;23.70;99.90
22430;DHT22;11382;48.086;11.632;2022-07-23T07:24:22;23.80;99.90
22430;DHT22;11382;48.086;11.632;2022-07-23T07:26:57;23.70;99.90
22430;DHT22;11382;48.086;11.632;2022-07-23T07:29:25;24.00;99.90
22430;DHT22;11382;48.086;11.632;2022-07-23T07:31:53;24.00;99.90
22430;DHT22;11382;48.086;11.632;2022-07-23T07:34:21;24.00;99.90
22430;DHT22;11382;48.086;11.632;2022-07-23T07:36:51;24.40;99.90
22430;DHT22;11382;48.086;11.632;2022-07-23T07:39:19;24.80;99.90
22430;DHT22;11382;48.086;11.632;2022-07-23T07:41:47;24.70;99.90
22430;DHT22;11382;48.086;11.632;2022-07-23T07:44:15;24.30;99.90
22430;DHT22;11382;48.086;11.632;2022-07-23T07:46:43;23.60;99.90
22430;DHT22;11382;48.086;11.632;2022-07-23T07:49:11;23.30;99.90
22430;DHT22;11382;48.086;11.632;2022-07-23T07:51:42;23.00;99.90
22430;DHT22;11382;48.086;11.632;2022-07-23T07:54:12;22.70;99.90
22430;DHT22;11382;48.086;11.632;2022-07-23T07:56:40;22.60;99.90
22430;DHT22;11382;48.086;11.632;2022-07-23T07:59:08;22.40;99.90
22430;DHT22;11382;48.086;11.632;2022-07-23T08:01:37;22.50;99.90
22430;DHT22;11382;48.086;11.632;2022-07-23T08:04:06;22.60;99.90
22430;DHT22;11382;48.086;11.632;2022-07-23T08:06:34;22.70;99.90
22430;DHT22;11382;48.086;11.632;2022-07-23T08:09:02;22.90;99.90
22430;DHT22;11382;48.086;11.632;2022-07-23T08:11:31;22.70;99.90
22430;DHT22;11382;48.086;11.632;2022-07-23T08:14:00;22.60;99.90
22430;DHT22;11382;48.086;11.632;2022-07-23T08:16:28;22.80;99.90
22430;DHT22;11382;48.086;11.632;2022-07-23T08:19:16;22.90;99.90
22430;DHT22;11382;48.086;11.632;2022-07-23T08:21:44;22.90;99.90
22430;DHT22;11382;48.086;11.632;2022-07-23T08:24:12;23.00;99.90
22430;DHT22;11382;48.086;11.632;2022-07-23T08:26:41;23.20;99.90
22430;DHT22;11382;48.086;11.632;2022-07-23T08:29:10;23.40;99.90
22430;DHT22;11382;48.086;11.632;2022-07-23T08:31:37;23.50;99.90
22430;DHT22;11382;48.086;11.632;2022-07-23T08:34:06;23.60;99.90
22430;DHT22;11382;48.086;11.632;2022-07-23T08:36:34;23.60;99.90
22430;DHT22;11382;48.086;11.632;2022-07-23T08:39:03;23.50;99.90
22430;DHT22;11382;48.086;11.632;2022-07-23T08:41:31;23.60;99.90
22430;DHT22;11382;48.086;11.632;2022-07-23T08:44:02;23.80;99.90
22430;DHT22;11382;48.086;11.632;2022-07-23T08:46:31;23.90;99.90
22430;DHT22;11382;48.086;11.632;2022-07-23T08:48:59;24.20;99.90
22430;DHT22;11382;48.086;11.632;2022-07-23T08:51:28;24.60;99.90
22430;DHT22;11382;48.086;11.632;2022-07-23T08:53:56;24.80;99.90
22430;DHT22;11382;48.086;11.632;2022-07-23T08:56:25;25.00;99.90
22430;DHT22;11382;48.086;11.632;2022-07-23T08:58:53;24.80;99.90
22430;DHT22;11382;48.086;11.632;2022-07-23T09:01:22;24.50;99.90
22430;DHT22;11382;48.086;11.632;2022-07-23T09:03:51;24.20;99.90
22430;DHT22;11382;48.086;11.632;2022-07-23T09:06:18;24.20;99.90
22430;DHT22;11382;48.086;11.632;2022-07-23T09:08:46;24.20;99.90
22430;DHT22;11382;48.086;11.632;2022-07-23T09:11:16;23.90;99.90
22430;DHT22;11382;48.086;11.632;2022-07-23T09:13:47;23.90;99.90
22430;DHT22;11382;48.086;11.632;2022-07-23T09:16:17;23.80;99.90
22430;DHT22;11382;48.086;11.632;2022-07-23T09:18:49;23.60;99.90
22430;DHT22;11382;48.086;11.632;2022-07-23T09:21:21;23.60;99.90
22430;DHT22;11382;48.086;11.632;2022-07-23T09:23:53;23.60;99.90
22430;DHT22;11382;48.086;11.632;2022-07-23T09:26:23;23.60;99.90
22430;DHT22;11382;48.086;11.632;2022-07-23T09:28:54;23.70;99.90
22430;DHT22;11382;48.086;11.632;2022-07-23T09:31:23;23.90;99.90
22430;DHT22;11382;48.086;11.632;2022-07-23T09:34:10;24.10;99.90
22430;DHT22;11382;48.086;11.632;2022-07-23T09:36:38;24.90;99.90
22430;DHT22;11382;48.086;11.632;2022-07-23T09:39:07;27.30;99.90
22430;DHT22;11382;48.086;11.632;2022-07-23T09:41:40;29.40;99.90
22430;DHT22;11382;48.086;11.632;2022-07-23T09:44:10;31.70;95.40
22430;DHT22;11382;48.086;11.632;2022-07-23T09:46:39;31.90;92.40
22430;DHT22;11382;48.086;11.632;2022-07-23T09:49:17;30.90;92.80
22430;DHT22;11382;48.086;11.632;2022-07-23T09:51:51;30.40;93.80
22430;DHT22;11382;48.086;11.632;2022-07-23T09:54:38;30.50;92.80
22430;DHT22;11382;48.086;11.632;2022-07-23T09:57:09;32.10;91.20
22430;DHT22;11382;48.086;11.632;2022-07-23T09:59:43;33.90;87.80
22430;DHT22;11382;48.086;11.632;2022-07-23T10:02:13;35.10;82.10
22430;DHT22;11382;48.086;11.632;2022-07-23T10:05:02;36.70;75.70
22430;DHT22;11382;48.086;11.632;2022-07-23T10:07:51;37.90;70.30
22430;DHT22;11382;48.086;11.632;2022-07-23T10:10:39;38.60;62.40
22430;DHT22;11382;48.086;11.632;2022-07-23T10:13:24;38.20;64.20
22430;DHT22;11382;48.086;11.632;2022-07-23T10:16:07;38.00;60.90
22430;DHT22;11382;48.086;11.632;2022-07-23T10:18:35;35.90;62.70
22430;DHT22;11382;48.086;11.632;2022-07-23T10:21:18;36.50;64.20
22430;DHT22;11382;48.086;11.632;2022-07-23T10:24:01;36.40;61.30
22430;DHT22;11382;48.086;11.632;2022-07-23T10:26:38;35.10;64.80
22430;DHT22;11382;48.086;11.632;2022-07-23T10:29:18;33.90;64.10
22430;DHT22;11382;48.086;11.632;2022-07-23T10:31:55;34.20;65.20
22430;DHT22;11382;48.086;11.632;2022-07-23T10:34:38;34.60;62.40
22430;DHT22;11382;48.086;11.632;2022-07-23T10:37:16;34.10;63.40
22430;DHT22;11382;48.086;11.632;2022-07-23T10:39:48;32.50;65.70
22430;DHT22;11382;48.086;11.632;2022-07-23T10:42:17;31.70;69.10
22430;DHT22;11382;48.086;11.632;2022-07-23T10:44:46;31.20;70.30
22430;DHT22;11382;48.086;11.632;2022-07-23T10:47:25;30.80;71.90
22430;DHT22;11382;48.086;11.632;2022-07-23T10:50:20;30.20;73.60
22430;DHT22;11382;48.086;11.632;2022-07-23T10:53:12;29.90;74.30
22430;DHT22;11382;48.086;11.632;2022-07-23T10:55:46;29.20;75.60
22430;DHT22;11382;48.086;11.632;2022-07-23T10:58:19;28.70;77.20
22430;DHT22;11382;48.086;11.632;2022-07-23T11:00:48;28.40;78.30
22430;DHT22;11382;48.086;11.632;2022-07-23T11:03:31;28.20;77.40
22430;DHT22;11382;48.086;11.632;2022-07-23T11:06:05;28.40;77.00
22430;DHT22;11382;48.086;11.632;2022-07-23T11:08:34;28.90;76.30
22430;DHT22;11382;48.086;11.632;2022-07-23T11:11:10;28.80;76.80
22430;DHT22;11382;48.086;11.632;2022-07-23T11:13:41;28.70;77.80
22430;DHT22;11382;48.086;11.632;2022-07-23T11:16:15;28.20;78.70
22430;DHT22;11382;48.086;11.632;2022-07-23T11:19:08;28.00;79.70
22430;DHT22;11382;48.086;11.632;2022-07-23T11:21:47;28.00;80.50
22430;DHT22;11382;48.086;11.632;2022-07-23T11:24:24;27.70;81.30
22430;DHT22;11382;48.086;11.632;2022-07-23T11:26:57;27.70;80.80
22430;DHT22;11382;48.086;11.632;2022-07-23T11:29:45;27.50;81.40
22430;DHT22;11382;48.086;11.632;2022-07-23T11:32:38;27.20;83.10
22430;DHT22;11382;48.086;11.632;2022-07-23T11:35:22;27.10;83.30
22430;DHT22;11382;48.086;11.632;2022-07-23T11:37:51;26.80;84.90
22430;DHT22;11382;48.086;11.632;2022-07-23T11:40:26;26.70;86.30
22430;DHT22;11382;48.086;11.632;2022-07-23T11:42:57;26.50;86.80
22430;DHT22;11382;48.086;11.632;2022-07-23T11:45:30;26.40;87.10
22430;DHT22;11382;48.086;11.632;2022-07-23T11:47:59;26.20;88.50
22430;DHT22;11382;48.086;11.632;2022-07-23T11:50:27;26.20;88.40
22430;DHT22;11382;48.086;11.632;2022-07-23T11:52:56;26.10;88.70
22430;DHT22;11382;48.086;11.632;2022-07-23T11:55:25;26.00;89.40
22430;DHT22;11382;48.086;11.632;2022-07-23T11:57:55;26.00;89.70
22430;DHT22;11382;48.086;11.632;2022-07-23T12:00:27;26.00;89.70
22430;DHT22;11382;48.086;11.632;2022-07-23T12:02:57;26.20;90.00
22430;DHT22;11382;48.086;11.632;2022-07-23T12:05:27;26.20;89.90
22430;DHT22;11382;48.086;11.632;2022-07-23T12:07:56;26.10;89.80
22430;DHT22;11382;48.086;11.632;2022-07-23T12:10:28;26.10;90.30
22430;DHT22;11382;48.086;11.632;2022-07-23T12:12:57;26.20;91.00
22430;DHT22;11382;48.086;11.632;2022-07-23T12:15:27;26.30;90.50
22430;DHT22;11382;48.086;11.632;2022-07-23T12:17:57;26.30;90.70
22430;DHT22;11382;48.086;11.632;2022-07-23T12:20:27;26.10;90.50
22430;DHT22;11382;48.086;11.632;2022-07-23T12:22:58;25.90;90.40
22430;DHT22;11382;48.086;11.632;2022-07-23T12:25:29;25.90;90.90
22430;DHT22;11382;48.086;11.632;2022-07-23T12:28:03;26.00;90.70
22430;DHT22;11382;48.086;11.632;2022-07-23T12:30:33;26.00;90.80
22430;DHT22;11382;48.086;11.632;2022-07-23T12:33:02;26.00;91.20
22430;DHT22;11382;48.086;11.632;2022-07-23T12:35:33;26.00;91.20
22430;DHT22;11382;48.086;11.632;2022-07-23T12:38:04;26.10;91.20
22430;DHT22;11382;48.086;11.632;2022-07-23T12:40:37;26.10;91.20
22430;DHT22;11382;48.086;11.632;2022-07-23T12:43:20;26.10;91.40
22430;DHT22;11382;48.086;11.632;2022-07-23T12:45:49;26.10;91.40
22430;DHT22;11382;48.086;11.632;2022-07-23T12:48:26;26.10;91.90
22430;DHT22;11382;48.086;11.632;2022-07-23T12:50:56;26.30;91.20
22430;DHT22;11382;48.086;11.632;2022-07-23T12:53:27;26.30;91.90
22430;DHT22;11382;48.086;11.632;2022-07-23T12:56:03;26.20;91.50
22430;DHT22;11382;48.086;11.632;2022-07-23T12:58:44;25.90;91.70
22430;DHT22;11382;48.086;11.632;2022-07-23T13:01:26;25.80;92.00
22430;DHT22;11382;48.086;11.632;2022-07-23T13:03:58;25.80;92.40
22430;DHT22;11382;48.086;11.632;2022-07-23T13:06:28;25.90;92.70
22430;DHT22;11382;48.086;11.632;2022-07-23T13:08:57;26.10;92.60
22430;DHT22;11382;48.086;11.632;2022-07-23T13:11:28;26.40;91.80
22430;DHT22;11382;48.086;11.632;2022-07-23T13:13:57;26.70;91.10
22430;DHT22;11382;48.086;11.632;2022-07-23T13:16:27;27.20;90.60
22430;DHT22;11382;48.086;11.632;2022-07-23T13:18:55;27.40;90.50
22430;DHT22;11382;48.086;11.632;2022-07-23T13:21:25;27.40;90.30
22430;DHT22;11382;48.086;11.632;2022-07-23T13:23:54;27.50;90.40
22430;DHT22;11382;48.086;11.632;2022-07-23T13:26:23;27.70;90.30
22430;DHT22;11382;48.086;11.632;2022-07-23T13:28:52;28.00;89.50
22430;DHT22;11382;48.086;11.632;2022-07-23T13:31:21;27.90;90.10
22430;DHT22;11382;48.086;11.632;2022-07-23T13:33:50;27.90;89.20
22430;DHT22;11382;48.086;11.632;2022-07-23T13:36:18;27.50;90.10
22430;DHT22;11382;48.086;11.632;2022-07-23T13:38:46;27.10;90.60
22430;DHT22;11382;48.086;11.632;2022-07-23T13:41:16;26.80;90.70
22430;DHT22;11382;48.086;11.632;2022-07-23T13:43:45;26.50;91.40
22430;DHT22;11382;48.086;11.632;2022-07-23T13:46:15;26.40;91.50
22430;DHT22;11382;48.086;11.632;2022-07-23T13:48:42;26.30;91.50
22430;DHT22;11382;48.086;11.632;2022-07-23T13:51:11;26.30;91.70
22430;DHT22;11382;48.086;11.632;2022-07-23T13:53:39;26.60;91.70
22430;DHT22;11382;48.086;11.632;2022-07-23T13:56:07;26.70;91.90
22430;DHT22;11382;48.086;11.632;2022-07-23T13:58:35;26.80;91.50
22430;DHT22;11382;48.086;11.632;2022-07-23T14:01:05;26.50;91.40
22430;DHT22;11382;48.086;11.632;2022-07-23T14:03:34;26.30;92.10
22430;DHT22;11382;48.086;11.632;2022-07-23T14:06:02;26.00;92.20
22430;DHT22;11382;48.086;11.632;2022-07-23T14:08:42;26.00;92.60
22430;DHT22;11382;48.086;11.632;2022-07-23T14:11:11;26.00;92.40
22430;DHT22;11382;48.086;11.632;2022-07-23T14:13:40;25.70;93.00
22430;DHT22;11382;48.086;11.632;2022-07-23T14:16:08;25.50;93.30
22430;DHT22;11382;48.086;11.632;2022-07-23T14:18:37;25.50;93.80
22430;DHT22;11382;48.086;11.632;2022-07-23T14:21:05;25.50;95.10
22430;DHT22;11382;48.086;11.632;2022-07-23T14:23:33;25.40;94.60
22430;DHT22;11382;48.086;11.632;2022-07-23T14:26:02;25.30;94.70
22430;DHT22;11382;48.086;11.632;2022-07-23T14:28:32;25.30;94.80
22430;DHT22;11382;48.086;11.632;2022-07-23T14:31:02;25.40;95.10
22430;DHT22;11382;48.086;11.632;2022-07-23T14:33:30;25.50;94.70
22430;DHT22;11382;48.086;11.632;2022-07-23T14:35:59;25.60;94.30
22430;DHT22;11382;48.086;11.632;2022-07-23T14:38:28;25.60;94.40
22430;DHT22;11382;48.086;11.632;2022-07-23T14:40:57;25.60;95.00
22430;DHT22;11382;48.086;11.632;2022-07-23T14:43:25;25.60;94.70
22430;DHT22;11382;48.086;11.632;2022-07-23T14:45:55;25.80;94.60
22430;DHT22;11382;48.086;11.632;2022-07-23T14:48:23;26.00;94.40
22430;DHT22;11382;48.086;11.632;2022-07-23T14:50:51;26.00;94.60
22430;DHT22;11382;48.086;11.632;2022-07-23T14:53:20;26.40;94.00
22430;DHT22;11382;48.086;11.632;2022-07-23T14:55:52;26.60;94.00
22430;DHT22;11382;48.086;11.632;2022-07-23T14:58:21;26.70;93.40
22430;DHT22;11382;48.086;11.632;2022-07-23T15:00:49;27.00;93.40
22430;DHT22;11382;48.086;11.632;2022-07-23T15:03:17;27.30;93.20
22430;DHT22;11382;48.086;11.632;2022-07-23T15:05:45;27.50;92.30
22430;DHT22;11382;48.086;11.632;2022-07-23T15:08:13;27.30;92.80
22430;DHT22;11382;48.086;11.632;2022-07-23T15:10:50;27.30;93.40
22430;DHT22;11382;48.086;11.632;2022-07-23T15:13:18;27.50;92.90
22430;DHT22;11382;48.086;11.632;2022-07-23T15:15:46;27.70;92.70
22430;DHT22;11382;48.086;11.632;2022-07-23T15:18:19;27.30;92.80
22430;DHT22;11382;48.086;11.632;2022-07-23T15:20:47;27.10;92.90
22430;DHT22;11382;48.086;11.632;2022-07-23T15:23:15;26.90;93.20
22430;DHT22;11382;48.086;11.632;2022-07-23T15:25:44;27.00;93.20
22430;DHT22;11382;48.086;11.632;2022-07-23T15:28:18;27.20;93.40
22430;DHT22;11382;48.086;11.632;2022-07-23T15:30:47;27.50;93.00
22430;DHT22;11382;48.086;11.632;2022-07-23T15:33:16;27.60;92.70
22430;DHT22;11382;48.086;11.632;2022-07-23T15:35:47;27.60;92.70